sensor_id;sensor_type;location;lat;lon;timestamp;P1;durP1;ratioP1;P2;durP2;ratioP2
9848;SDS011;4963;51.444;6.528;2022-08-19T00:01:43;10.90;;;7.00;;
9848;SDS011;4963;51.444;6.528;2022-08-19T00:04:12;7.43;;;6.72;;
9848;SDS011;4963;51.444;6.528;2022-08-19T00:06:43;7.90;;;7.10;;
9848;SDS011;4963;51.444;6.528;2022-08-19T00:09:11;7.97;;;7.18;;
9848;SDS011;4963;51.444;6.528;2022-08-19T00:11:41;7.45;;;6.75;;
9848;SDS011;4963;51.444;6.528;2022-08-19T00:14:12;7.85;;;7.10;;
9848;SDS011;4963;51.444;6.528;2022-08-19T00:16:41;7.93;;;7.15;;
9848;SDS011;4963;51.444;6.528;2022-08-19T00:19:11;7.22;;;6.53;;
9848;SDS011;4963;51.444;6.528;2022-08-19T00:21:38;7.15;;;6.40;;
9848;SDS011;4963;51.444;6.528;2022-08-19T00:24:07;7.90;;;7.10;;
9848;SDS011;4963;51.444;6.528;2022-08-19T00:26:35;7.32;;;6.70;;
9848;SDS011;4963;51.444;6.528;2022-08-19T00:29:03;9.50;;;6.47;;
9848;SDS011;4963;51.444;6.528;2022-08-19T00:31:31;7.32;;;6.00;;
9848;SDS011;4963;51.444;6.528;2022-08-19T00:33:58;8.30;;;6.38;;
9848;SDS011;4963;51.444;6.528;2022-08-19T00:36:25;13.45;;;6.75;;
9848;SDS011;4963;51.444;6.528;2022-08-19T00:38:53;8.32;;;6.18;;
9848;SDS011;4963;51.444;6.528;2022-08-19T00:41:23;6.75;;;6.05;;
9848;SDS011;4963;51.444;6.528;2022-08-19T00:43:57;7.20;;;6.50;;
9848;SDS011;4963;51.444;6.528;2022-08-19T00:46:29;6.68;;;6.07;;
9848;SDS011;4963;51.444;6.528;2022-08-19T00:48:57;6.30;;;5.70;;
9848;SDS011;4963;51.444;6.528;2022-08-19T00:51:26;6.80;;;6.20;;
9848;SDS011;4963;51.444;6.528;2022-08-19T00:53:57;6.60;;;6.05;;
9848;SDS011;4963;51.444;6.528;2022-08-19T00:56:28;7.18;;;6.57;;
9848;SDS011;4963;51.444;6.528;2022-08-19T00:58:56;7.85;;;6.50;;
9848;SDS011;4963;51.444;6.528;2022-08-19T01:01:25;8.43;;;6.55;;
9848;SDS011;4963;51.444;6.528;2022-08-19T01:03:52;8.00;;;7.20;;
9848;SDS011;4963;51.444;6.528;2022-08-19T01:06:19;7.22;;;6.53;;
9848;SDS011;4963;51.444;6.528;2022-08-19T01:08:46;7.70;;;7.00;;
9848;SDS011;4963;51.444;6.528;2022-08-19T01:11:13;7.97;;;7.18;;
9848;SDS011;4963;51.444;6.528;2022-08-19T01:13:41;7.50;;;6.72;;
9848;SDS011;4963;51.444;6.528;2022-08-19T01:16:09;7.38;;;6.53;;
9848;SDS011;4963;51.444;6.528;2022-08-19T01:18:38;9.18;;;7.10;;
9848;SDS011;4963;51.444;6.528;2022-08-19T01:21:09;7.80;;;7.00;;
9848;SDS011;4963;51.444;6.528;2022-08-19T01:23:42;7.43;;;6.47;;
9848;SDS011;4963;51.444;6.528;2022-08-19T01:26:10;7.45;;;6.72;;
9848;SDS011;4963;51.444;6.528;2022-08-19T01:28:39;7.90;;;7.13;;
9848;SDS011;4963;51.444;6.528;2022-08-19T01:31:09;11.43;;;7.35;;
9848;SDS011;4963;51.444;6.528;2022-08-19T01:33:38;8.43;;;7.68;;
9848;SDS011;4963;51.444;6.528;2022-08-19T01:36:06;10.48;;;8.10;;
9848;SDS011;4963;51.444;6.528;2022-08-19T01:38:36;9.63;;;8.68;;
9848;SDS011;4963;51.444;6.528;2022-08-19T01:41:06;10.80;;;9.70;;
9848;SDS011;4963;51.444;6.528;2022-08-19T01:43:32;10.13;;;9.13;;
9848;SDS011;4963;51.444;6.528;2022-08-19T01:45:59;10.65;;;9.73;;
9848;SDS011;4963;51.444;6.528;2022-08-19T01:48:32;9.82;;;8.90;;
9848;SDS011;4963;51.444;6.528;2022-08-19T01:50:59;10.60;;;9.60;;
9848;SDS011;4963;51.444;6.528;2022-08-19T01:53:26;9.55;;;8.65;;
9848;SDS011;4963;51.444;6.528;2022-08-19T01:55:53;10.45;;;8.68;;
9848;SDS011;4963;51.444;6.528;2022-08-19T01:58:22;9.50;;;8.60;;
9848;SDS011;4963;51.444;6.528;2022-08-19T02:00:54;9.88;;;8.88;;
9848;SDS011;4963;51.444;6.528;2022-08-19T02:03:21;9.45;;;8.55;;
9848;SDS011;4963;51.444;6.528;2022-08-19T02:05:53;10.07;;;9.07;;
9848;SDS011;4963;51.444;6.528;2022-08-19T02:08:22;8.82;;;8.02;;
9848;SDS011;4963;51.444;6.528;2022-08-19T02:10:49;8.90;;;8.10;;
9848;SDS011;4963;51.444;6.528;2022-08-19T02:13:16;9.25;;;7.88;;
9848;SDS011;4963;51.444;6.528;2022-08-19T02:15:44;11.68;;;9.18;;
9848;SDS011;4963;51.444;6.528;2022-08-19T02:18:11;10.40;;;8.48;;
9848;SDS011;4963;51.444;6.528;2022-08-19T02:20:38;9.25;;;8.00;;
9848;SDS011;4963;51.444;6.528;2022-08-19T02:23:07;8.32;;;7.63;;
9848;SDS011;4963;51.444;6.528;2022-08-19T02:25:34;9.60;;;8.65;;
9848;SDS011;4963;51.444;6.528;2022-08-19T02:28:02;9.00;;;8.10;;
9848;SDS011;4963;51.444;6.528;2022-08-19T02:30:29;9.80;;;8.65;;
9848;SDS011;4963;51.444;6.528;2022-08-19T02:32:57;9.75;;;8.85;;
9848;SDS011;4963;51.444;6.528;2022-08-19T02:35:24;10.05;;;9.15;;
9848;SDS011;4963;51.444;6.528;2022-08-19T02:37:51;8.73;;;7.90;;
9848;SDS011;4963;51.444;6.528;2022-08-19T02:40:36;9.20;;;8.40;;
9848;SDS011;4963;51.444;6.528;2022-08-19T02:43:04;9.38;;;8.43;;
9848;SDS011;4963;51.444;6.528;2022-08-19T02:45:32;13.30;;;10.10;;
9848;SDS011;4963;51.444;6.528;2022-08-19T02:48:01;10.18;;;9.18;;
9848;SDS011;4963;51.444;6.528;2022-08-19T02:50:28;10.80;;;9.80;;
9848;SDS011;4963;51.444;6.528;2022-08-19T02:52:55;11.18;;;10.18;;
9848;SDS011;4963;51.444;6.528;2022-08-19T02:55:22;11.45;;;10.32;;
9848;SDS011;4963;51.444;6.528;2022-08-19T02:57:49;10.85;;;9.75;;
9848;SDS011;4963;51.444;6.528;2022-08-19T03:00:15;11.98;;;10.77;;
9848;SDS011;4963;51.444;6.528;2022-08-19T03:02:43;12.75;;;11.50;;
9848;SDS011;4963;51.444;6.528;2022-08-19T03:05:13;12.45;;;11.15;;
9848;SDS011;4963;51.444;6.528;2022-08-19T03:07:40;15.23;;;12.25;;
9848;SDS011;4963;51.444;6.528;2022-08-19T03:10:07;11.85;;;10.75;;
9848;SDS011;4963;51.444;6.528;2022-08-19T03:12:35;11.73;;;10.52;;
9848;SDS011;4963;51.444;6.528;2022-08-19T03:15:03;13.23;;;11.93;;
9848;SDS011;4963;51.444;6.528;2022-08-19T03:17:32;15.55;;;13.35;;
9848;SDS011;4963;51.444;6.528;2022-08-19T03:19:59;13.45;;;12.13;;
9848;SDS011;4963;51.444;6.528;2022-08-19T03:22:28;14.65;;;13.25;;
9848;SDS011;4963;51.444;6.528;2022-08-19T03:24:55;14.90;;;13.48;;
9848;SDS011;4963;51.444;6.528;2022-08-19T03:27:22;17.25;;;15.38;;
9848;SDS011;4963;51.444;6.528;2022-08-19T03:29:49;17.90;;;16.27;;
9848;SDS011;4963;51.444;6.528;2022-08-19T03:32:16;18.75;;;16.13;;
9848;SDS011;4963;51.444;6.528;2022-08-19T03:34:43;18.85;;;17.02;;
9848;SDS011;4963;51.444;6.528;2022-08-19T03:37:11;17.55;;;15.82;;
9848;SDS011;4963;51.444;6.528;2022-08-19T03:39:40;16.27;;;14.00;;
9848;SDS011;4963;51.444;6.528;2022-08-19T03:42:07;14.55;;;13.05;;
9848;SDS011;4963;51.444;6.528;2022-08-19T03:44:34;14.98;;;13.60;;
9848;SDS011;4963;51.444;6.528;2022-08-19T03:47:02;15.35;;;13.85;;
9848;SDS011;4963;51.444;6.528;2022-08-19T03:49:31;16.13;;;14.52;;
9848;SDS011;4963;51.444;6.528;2022-08-19T03:52:00;16.08;;;14.48;;
9848;SDS011;4963;51.444;6.528;2022-08-19T03:54:27;16.25;;;14.55;;
9848;SDS011;4963;51.444;6.528;2022-08-19T03:56:56;15.23;;;13.82;;
9848;SDS011;4963;51.444;6.528;2022-08-19T03:59:24;14.90;;;13.43;;
9848;SDS011;4963;51.444;6.528;2022-08-19T04:01:53;15.40;;;13.90;;
9848;SDS011;4963;51.444;6.528;2022-08-19T04:04:20;15.40;;;13.90;;
9848;SDS011;4963;51.444;6.528;2022-08-19T04:06:47;16.73;;;14.45;;
9848;SDS011;4963;51.444;6.528;2022-08-19T04:09:15;18.05;;;16.20;;
9848;SDS011;4963;51.444;6.528;2022-08-19T04:11:43;18.17;;;15.85;;
9848;SDS011;4963;51.444;6.528;2022-08-19T04:14:15;17.90;;;16.02;;
9848;SDS011;4963;51.444;6.528;2022-08-19T04:16:45;17.60;;;15.75;;
9848;SDS011;4963;51.444;6.528;2022-08-19T04:19:13;17.98;;;16.17;;
9848;SDS011;4963;51.444;6.528;2022-08-19T04:21:42;16.90;;;15.27;;
9848;SDS011;4963;51.444;6.528;2022-08-19T04:24:10;17.88;;;16.10;;
9848;SDS011;4963;51.444;6.528;2022-08-19T04:26:37;16.70;;;15.10;;
9848;SDS011;4963;51.444;6.528;2022-08-19T04:29:06;17.75;;;14.57;;
9848;SDS011;4963;51.444;6.528;2022-08-19T04:31:35;17.15;;;15.45;;
9848;SDS011;4963;51.444;6.528;2022-08-19T04:34:04;19.50;;;17.60;;
9848;SDS011;4963;51.444;6.528;2022-08-19T04:36:33;20.65;;;18.63;;
9848;SDS011;4963;51.444;6.528;2022-08-19T04:39:03;18.58;;;16.20;;
9848;SDS011;4963;51.444;6.528;2022-08-19T04:41:32;19.30;;;17.33;;
9848;SDS011;4963;51.444;6.528;2022-08-19T04:44:17;20.38;;;18.40;;
9848;SDS011;4963;51.444;6.528;2022-08-19T04:46:45;23.90;;;21.33;;
9848;SDS011;4963;51.444;6.528;2022-08-19T04:49:13;24.67;;;22.13;;
9848;SDS011;4963;51.444;6.528;2022-08-19T04:51:42;25.75;;;23.13;;
9848;SDS011;4963;51.444;6.528;2022-08-19T04:54:10;24.50;;;22.00;;
9848;SDS011;4963;51.444;6.528;2022-08-19T04:56:38;28.38;;;23.90;;
9848;SDS011;4963;51.444;6.528;2022-08-19T04:59:06;27.48;;;24.67;;
9848;SDS011;4963;51.444;6.528;2022-08-19T05:01:33;29.65;;;25.80;;
9848;SDS011;4963;51.444;6.528;2022-08-19T05:04:03;29.67;;;26.58;;
9848;SDS011;4963;51.444;6.528;2022-08-19T05:06:32;29.65;;;26.50;;
9848;SDS011;4963;51.444;6.528;2022-08-19T05:08:59;32.78;;;27.30;;
9848;SDS011;4963;51.444;6.528;2022-08-19T05:11:27;30.30;;;27.30;;
9848;SDS011;4963;51.444;6.528;2022-08-19T05:13:55;32.10;;;28.17;;
9848;SDS011;4963;51.444;6.528;2022-08-19T05:16:24;32.20;;;28.90;;
9848;SDS011;4963;51.444;6.528;2022-08-19T05:18:52;31.27;;;28.08;;
9848;SDS011;4963;51.444;6.528;2022-08-19T05:21:38;33.03;;;29.75;;
9848;SDS011;4963;51.444;6.528;2022-08-19T05:24:34;32.78;;;29.52;;
9848;SDS011;4963;51.444;6.528;2022-08-19T05:27:02;33.95;;;30.55;;
9848;SDS011;4963;51.444;6.528;2022-08-19T05:29:31;36.25;;;32.58;;
9848;SDS011;4963;51.444;6.528;2022-08-19T05:32:00;36.83;;;33.13;;
9848;SDS011;4963;51.444;6.528;2022-08-19T05:34:28;35.92;;;32.25;;
9848;SDS011;4963;51.444;6.528;2022-08-19T05:36:59;38.45;;;34.40;;
9848;SDS011;4963;51.444;6.528;2022-08-19T05:39:29;39.58;;;35.72;;
9848;SDS011;4963;51.444;6.528;2022-08-19T05:41:58;38.95;;;34.92;;
9848;SDS011;4963;51.444;6.528;2022-08-19T05:44:27;41.53;;;37.42;;
9848;SDS011;4963;51.444;6.528;2022-08-19T05:46:56;41.60;;;37.38;;
9848;SDS011;4963;51.444;6.528;2022-08-19T05:49:24;40.75;;;36.75;;
9848;SDS011;4963;51.444;6.528;2022-08-19T05:51:52;42.17;;;36.90;;
9848;SDS011;4963;51.444;6.528;2022-08-19T05:54:22;42.35;;;38.15;;
9848;SDS011;4963;51.444;6.528;2022-08-19T05:56:49;42.50;;;38.40;;
9848;SDS011;4963;51.444;6.528;2022-08-19T05:59:17;41.80;;;37.60;;
9848;SDS011;4963;51.444;6.528;2022-08-19T06:01:47;42.30;;;38.00;;
9848;SDS011;4963;51.444;6.528;2022-08-19T06:04:16;43.50;;;39.17;;
9848;SDS011;4963;51.444;6.528;2022-08-19T06:06:44;40.10;;;35.95;;
9848;SDS011;4963;51.444;6.528;2022-08-19T06:09:12;41.55;;;37.33;;
9848;SDS011;4963;51.444;6.528;2022-08-19T06:11:41;42.10;;;37.83;;
9848;SDS011;4963;51.444;6.528;2022-08-19T06:14:10;43.10;;;38.60;;
9848;SDS011;4963;51.444;6.528;2022-08-19T06:16:40;40.20;;;36.13;;
9848;SDS011;4963;51.444;6.528;2022-08-19T06:19:08;42.65;;;38.35;;
9848;SDS011;4963;51.444;6.528;2022-08-19T06:21:38;40.33;;;36.30;;
9848;SDS011;4963;51.444;6.528;2022-08-19T06:24:07;42.80;;;38.28;;
9848;SDS011;4963;51.444;6.528;2022-08-19T06:26:35;44.55;;;40.17;;
9848;SDS011;4963;51.444;6.528;2022-08-19T06:29:05;39.92;;;35.85;;
9848;SDS011;4963;51.444;6.528;2022-08-19T06:31:34;40.28;;;35.83;;
9848;SDS011;4963;51.444;6.528;2022-08-19T06:34:02;41.20;;;36.80;;
9848;SDS011;4963;51.444;6.528;2022-08-19T06:36:31;37.55;;;33.58;;
9848;SDS011;4963;51.444;6.528;2022-08-19T06:39:00;38.78;;;34.78;;
9848;SDS011;4963;51.444;6.528;2022-08-19T06:41:28;39.78;;;35.60;;
9848;SDS011;4963;51.444;6.528;2022-08-19T06:43:56;38.88;;;34.97;;
9848;SDS011;4963;51.444;6.528;2022-08-19T06:46:24;39.40;;;35.40;;
9848;SDS011;4963;51.444;6.528;2022-08-19T06:48:52;41.15;;;35.53;;
9848;SDS011;4963;51.444;6.528;2022-08-19T06:51:20;41.67;;;37.42;;
9848;SDS011;4963;51.444;6.528;2022-08-19T06:53:49;36.17;;;32.45;;
9848;SDS011;4963;51.444;6.528;2022-08-19T06:56:18;36.83;;;32.92;;
9848;SDS011;4963;51.444;6.528;2022-08-19T06:58:47;37.80;;;33.80;;
9848;SDS011;4963;51.444;6.528;2022-08-19T07:01:18;34.63;;;31.13;;
9848;SDS011;4963;51.444;6.528;2022-08-19T07:03:46;33.42;;;29.92;;
9848;SDS011;4963;51.444;6.528;2022-08-19T07:06:15;31.83;;;28.65;;
9848;SDS011;4963;51.444;6.528;2022-08-19T07:08:45;33.13;;;29.02;;
9848;SDS011;4963;51.444;6.528;2022-08-19T07:11:15;29.80;;;26.85;;
9848;SDS011;4963;51.444;6.528;2022-08-19T07:13:44;27.60;;;24.80;;
9848;SDS011;4963;51.444;6.528;2022-08-19T07:16:14;25.88;;;23.30;;
9848;SDS011;4963;51.444;6.528;2022-08-19T07:18:44;26.58;;;23.75;;
9848;SDS011;4963;51.444;6.528;2022-08-19T07:21:13;31.00;;;25.33;;
9848;SDS011;4963;51.444;6.528;2022-08-19T07:23:42;24.67;;;21.80;;
9848;SDS011;4963;51.444;6.528;2022-08-19T07:26:11;27.85;;;24.95;;
9848;SDS011;4963;51.444;6.528;2022-08-19T07:28:40;28.85;;;25.85;;
9848;SDS011;4963;51.444;6.528;2022-08-19T07:31:09;34.55;;;29.15;;
9848;SDS011;4963;51.444;6.528;2022-08-19T07:33:37;36.85;;;32.88;;
9848;SDS011;4963;51.444;6.528;2022-08-19T07:36:04;41.60;;;34.38;;
9848;SDS011;4963;51.444;6.528;2022-08-19T07:38:37;37.50;;;32.30;;
9848;SDS011;4963;51.444;6.528;2022-08-19T07:41:05;41.55;;;35.50;;
9848;SDS011;4963;51.444;6.528;2022-08-19T07:43:32;40.92;;;34.35;;
9848;SDS011;4963;51.444;6.528;2022-08-19T07:45:59;38.28;;;34.03;;
9848;SDS011;4963;51.444;6.528;2022-08-19T07:48:27;40.38;;;35.00;;
9848;SDS011;4963;51.444;6.528;2022-08-19T07:50:55;41.28;;;36.90;;
9848;SDS011;4963;51.444;6.528;2022-08-19T07:53:24;40.30;;;35.15;;
9848;SDS011;4963;51.444;6.528;2022-08-19T07:55:52;36.72;;;32.83;;
9848;SDS011;4963;51.444;6.528;2022-08-19T07:58:21;38.60;;;33.28;;
9848;SDS011;4963;51.444;6.528;2022-08-19T08:00:49;39.30;;;34.65;;
9848;SDS011;4963;51.444;6.528;2022-08-19T08:03:18;39.15;;;34.90;;
9848;SDS011;4963;51.444;6.528;2022-08-19T08:06:06;41.45;;;37.10;;
9848;SDS011;4963;51.444;6.528;2022-08-19T08:08:50;45.20;;;38.28;;
9848;SDS011;4963;51.444;6.528;2022-08-19T08:11:36;42.22;;;37.65;;
9848;SDS011;4963;51.444;6.528;2022-08-19T08:14:03;40.58;;;36.00;;
9848;SDS011;4963;51.444;6.528;2022-08-19T08:16:31;40.90;;;35.33;;
9848;SDS011;4963;51.444;6.528;2022-08-19T08:19:00;41.75;;;35.13;;
9848;SDS011;4963;51.444;6.528;2022-08-19T08:21:27;38.35;;;34.20;;
9848;SDS011;4963;51.444;6.528;2022-08-19T08:23:54;41.28;;;34.88;;
9848;SDS011;4963;51.444;6.528;2022-08-19T08:26:21;34.95;;;31.35;;
9848;SDS011;4963;51.444;6.528;2022-08-19T08:28:49;35.33;;;31.60;;
9848;SDS011;4963;51.444;6.528;2022-08-19T08:31:16;35.53;;;31.67;;
9848;SDS011;4963;51.444;6.528;2022-08-19T08:33:44;36.28;;;32.38;;
9848;SDS011;4963;51.444;6.528;2022-08-19T08:36:12;41.15;;;35.00;;
9848;SDS011;4963;51.444;6.528;2022-08-19T08:38:40;34.40;;;30.63;;
9848;SDS011;4963;51.444;6.528;2022-08-19T08:41:09;36.38;;;32.38;;
9848;SDS011;4963;51.444;6.528;2022-08-19T08:43:45;37.17;;;30.13;;
9848;SDS011;4963;51.444;6.528;2022-08-19T08:46:18;38.58;;;32.15;;
9848;SDS011;4963;51.444;6.528;2022-08-19T08:48:51;35.45;;;31.65;;
9848;SDS011;4963;51.444;6.528;2022-08-19T08:51:22;35.50;;;29.13;;
9848;SDS011;4963;51.444;6.528;2022-08-19T08:53:53;31.73;;;28.45;;
9848;SDS011;4963;51.444;6.528;2022-08-19T08:56:21;37.22;;;32.80;;
9848;SDS011;4963;51.444;6.528;2022-08-19T08:58:50;32.53;;;29.00;;
9848;SDS011;4963;51.444;6.528;2022-08-19T09:01:32;33.90;;;29.92;;
9848;SDS011;4963;51.444;6.528;2022-08-19T09:03:58;32.40;;;28.90;;
9848;SDS011;4963;51.444;6.528;2022-08-19T09:06:28;32.58;;;28.85;;
9848;SDS011;4963;51.444;6.528;2022-08-19T09:09:04;29.90;;;26.75;;
9848;SDS011;4963;51.444;6.528;2022-08-19T09:11:43;28.48;;;25.45;;
9848;SDS011;4963;51.444;6.528;2022-08-19T09:14:31;29.85;;;26.05;;
9848;SDS011;4963;51.444;6.528;2022-08-19T09:17:03;24.55;;;22.05;;
9848;SDS011;4963;51.444;6.528;2022-08-19T09:19:33;30.05;;;23.40;;
9848;SDS011;4963;51.444;6.528;2022-08-19T09:22:00;26.20;;;21.17;;
9848;SDS011;4963;51.444;6.528;2022-08-19T09:24:27;31.27;;;27.23;;
9848;SDS011;4963;51.444;6.528;2022-08-19T09:26:54;27.05;;;24.15;;
9848;SDS011;4963;51.444;6.528;2022-08-19T09:29:21;26.65;;;23.58;;
9848;SDS011;4963;51.444;6.528;2022-08-19T09:31:48;35.28;;;28.80;;
9848;SDS011;4963;51.444;6.528;2022-08-19T09:34:16;28.27;;;25.23;;
9848;SDS011;4963;51.444;6.528;2022-08-19T09:36:44;27.98;;;25.00;;
9848;SDS011;4963;51.444;6.528;2022-08-19T09:39:11;28.02;;;25.05;;
9848;SDS011;4963;51.444;6.528;2022-08-19T09:41:38;28.50;;;24.83;;
9848;SDS011;4963;51.444;6.528;2022-08-19T09:44:05;25.25;;;22.10;;
9848;SDS011;4963;51.444;6.528;2022-08-19T09:46:32;27.35;;;23.95;;
9848;SDS011;4963;51.444;6.528;2022-08-19T09:48:59;26.92;;;21.65;;
9848;SDS011;4963;51.444;6.528;2022-08-19T09:51:28;23.02;;;20.63;;
9848;SDS011;4963;51.444;6.528;2022-08-19T09:53:58;22.45;;;20.08;;
9848;SDS011;4963;51.444;6.528;2022-08-19T09:56:26;22.45;;;19.08;;
9848;SDS011;4963;51.444;6.528;2022-08-19T09:58:53;20.88;;;18.35;;
9848;SDS011;4963;51.444;6.528;2022-08-19T10:01:21;20.30;;;18.00;;
9848;SDS011;4963;51.444;6.528;2022-08-19T10:03:50;17.90;;;16.02;;
9848;SDS011;4963;51.444;6.528;2022-08-19T10:06:19;18.95;;;17.05;;
9848;SDS011;4963;51.444;6.528;2022-08-19T10:08:48;15.15;;;13.50;;
9848;SDS011;4963;51.444;6.528;2022-08-19T10:11:17;19.50;;;14.93;;
9848;SDS011;4963;51.444;6.528;2022-08-19T10:13:45;16.20;;;14.60;;
9848;SDS011;4963;51.444;6.528;2022-08-19T10:16:14;16.80;;;15.10;;
9848;SDS011;4963;51.444;6.528;2022-08-19T10:18:45;20.38;;;17.20;;
9848;SDS011;4963;51.444;6.528;2022-08-19T10:21:12;19.42;;;16.65;;
9848;SDS011;4963;51.444;6.528;2022-08-19T10:23:41;15.32;;;13.30;;
9848;SDS011;4963;51.444;6.528;2022-08-19T10:26:12;16.73;;;14.20;;
9848;SDS011;4963;51.444;6.528;2022-08-19T10:28:41;14.07;;;12.60;;
9848;SDS011;4963;51.444;6.528;2022-08-19T10:31:08;16.90;;;14.10;;
9848;SDS011;4963;51.444;6.528;2022-08-19T10:33:37;14.32;;;12.90;;
9848;SDS011;4963;51.444;6.528;2022-08-19T10:36:06;17.85;;;14.27;;
9848;SDS011;4963;51.444;6.528;2022-08-19T10:38:34;15.73;;;13.98;;
9848;SDS011;4963;51.444;6.528;2022-08-19T10:41:08;15.38;;;13.52;;
9848;SDS011;4963;51.444;6.528;2022-08-19T10:43:38;17.65;;;15.32;;
9848;SDS011;4963;51.444;6.528;2022-08-19T10:46:05;16.63;;;14.88;;
9848;SDS011;4963;51.444;6.528;2022-08-19T10:48:33;14.98;;;13.18;;
9848;SDS011;4963;51.444;6.528;2022-08-19T10:51:00;14.18;;;12.77;;
9848;SDS011;4963;51.444;6.528;2022-08-19T10:53:45;13.43;;;11.30;;
9848;SDS011;4963;51.444;6.528;2022-08-19T10:56:12;15.52;;;12.25;;
9848;SDS011;4963;51.444;6.528;2022-08-19T10:58:58;14.38;;;12.70;;
9848;SDS011;4963;51.444;6.528;2022-08-19T11:01:25;15.40;;;12.77;;
9848;SDS011;4963;51.444;6.528;2022-08-19T11:03:54;14.25;;;12.38;;
9848;SDS011;4963;51.444;6.528;2022-08-19T11:06:22;14.70;;;12.80;;
9848;SDS011;4963;51.444;6.528;2022-08-19T11:08:50;12.57;;;9.40;;
9848;SDS011;4963;51.444;6.528;2022-08-19T11:11:17;13.00;;;11.20;;
9848;SDS011;4963;51.444;6.528;2022-08-19T11:13:44;14.43;;;12.02;;
9848;SDS011;4963;51.444;6.528;2022-08-19T11:16:13;12.93;;;10.70;;
9848;SDS011;4963;51.444;6.528;2022-08-19T11:18:42;11.45;;;10.23;;
9848;SDS011;4963;51.444;6.528;2022-08-19T11:21:12;12.90;;;10.63;;
9848;SDS011;4963;51.444;6.528;2022-08-19T11:23:42;12.57;;;11.10;;
9848;SDS011;4963;51.444;6.528;2022-08-19T11:26:10;14.90;;;9.73;;
9848;SDS011;4963;51.444;6.528;2022-08-19T11:28:37;9.15;;;8.25;;
9848;SDS011;4963;51.444;6.528;2022-08-19T11:31:08;9.85;;;8.85;;
9848;SDS011;4963;51.444;6.528;2022-08-19T11:33:38;8.85;;;7.95;;
9848;SDS011;4963;51.444;6.528;2022-08-19T11:36:05;9.30;;;7.35;;
9848;SDS011;4963;51.444;6.528;2022-08-19T11:38:32;7.13;;;6.40;;
9848;SDS011;4963;51.444;6.528;2022-08-19T11:41:01;8.82;;;7.95;;
9848;SDS011;4963;51.444;6.528;2022-08-19T11:43:30;10.60;;;8.13;;
9848;SDS011;4963;51.444;6.528;2022-08-19T11:45:57;10.80;;;6.82;;
9848;SDS011;4963;51.444;6.528;2022-08-19T11:48:24;6.57;;;5.97;;
9848;SDS011;4963;51.444;6.528;2022-08-19T11:50:53;8.45;;;6.82;;
9848;SDS011;4963;51.444;6.528;2022-08-19T11:53:21;7.93;;;7.10;;
9848;SDS011;4963;51.444;6.528;2022-08-19T11:55:48;8.23;;;6.60;;
9848;SDS011;4963;51.444;6.528;2022-08-19T11:58:16;7.20;;;6.53;;
9848;SDS011;4963;51.444;6.528;2022-08-19T12:00:43;8.05;;;6.75;;
9848;SDS011;4963;51.444;6.528;2022-08-19T12:03:11;8.10;;;6.20;;
9848;SDS011;4963;51.444;6.528;2022-08-19T12:05:39;5.57;;;4.97;;
9848;SDS011;4963;51.444;6.528;2022-08-19T12:08:08;7.85;;;5.20;;
9848;SDS011;4963;51.444;6.528;2022-08-19T12:10:37;8.07;;;5.20;;
9848;SDS011;4963;51.444;6.528;2022-08-19T12:13:05;8.07;;;7.13;;
9848;SDS011;4963;51.444;6.528;2022-08-19T12:15:34;6.18;;;5.30;;
9848;SDS011;4963;51.444;6.528;2022-08-19T12:18:02;6.95;;;5.22;;
9848;SDS011;4963;51.444;6.528;2022-08-19T12:20:30;5.45;;;4.95;;
9848;SDS011;4963;51.444;6.528;2022-08-19T12:22:59;6.00;;;5.38;;
9848;SDS011;4963;51.444;6.528;2022-08-19T12:25:28;7.15;;;5.72;;
9848;SDS011;4963;51.444;6.528;2022-08-19T12:27:55;6.85;;;5.55;;
9848;SDS011;4963;51.444;6.528;2022-08-19T12:30:22;7.43;;;5.43;;
9848;SDS011;4963;51.444;6.528;2022-08-19T12:32:50;11.23;;;5.30;;
9848;SDS011;4963;51.444;6.528;2022-08-19T12:35:17;11.27;;;6.55;;
9848;SDS011;4963;51.444;6.528;2022-08-19T12:37:46;6.00;;;5.30;;
9848;SDS011;4963;51.444;6.528;2022-08-19T12:40:15;10.57;;;5.78;;
9848;SDS011;4963;51.444;6.528;2022-08-19T12:42:45;5.30;;;4.78;;
9848;SDS011;4963;51.444;6.528;2022-08-19T12:45:14;8.23;;;5.45;;
9848;SDS011;4963;51.444;6.528;2022-08-19T12:47:41;6.13;;;5.07;;
9848;SDS011;4963;51.444;6.528;2022-08-19T12:50:08;6.63;;;5.53;;
9848;SDS011;4963;51.444;6.528;2022-08-19T12:52:35;7.55;;;5.85;;
9848;SDS011;4963;51.444;6.528;2022-08-19T12:55:03;6.20;;;5.60;;
9848;SDS011;4963;51.444;6.528;2022-08-19T12:57:31;8.02;;;5.50;;
9848;SDS011;4963;51.444;6.528;2022-08-19T13:00:03;8.75;;;6.43;;
9848;SDS011;4963;51.444;6.528;2022-08-19T13:02:33;7.07;;;5.93;;
9848;SDS011;4963;51.444;6.528;2022-08-19T13:05:01;10.05;;;7.03;;
9848;SDS011;4963;51.444;6.528;2022-08-19T13:07:28;7.95;;;6.78;;
9848;SDS011;4963;51.444;6.528;2022-08-19T13:09:55;7.40;;;6.43;;
9848;SDS011;4963;51.444;6.528;2022-08-19T13:12:22;7.68;;;6.38;;
9848;SDS011;4963;51.444;6.528;2022-08-19T13:14:51;6.82;;;5.65;;
9848;SDS011;4963;51.444;6.528;2022-08-19T13:17:20;7.65;;;6.53;;
9848;SDS011;4963;51.444;6.528;2022-08-19T13:19:47;7.70;;;6.53;;
9848;SDS011;4963;51.444;6.528;2022-08-19T13:22:15;7.07;;;6.38;;
9848;SDS011;4963;51.444;6.528;2022-08-19T13:24:42;7.13;;;6.25;;
9848;SDS011;4963;51.444;6.528;2022-08-19T13:27:09;8.45;;;7.05;;
9848;SDS011;4963;51.444;6.528;2022-08-19T13:29:36;7.13;;;6.20;;
9848;SDS011;4963;51.444;6.528;2022-08-19T13:32:21;8.70;;;6.32;;
9848;SDS011;4963;51.444;6.528;2022-08-19T13:35:06;7.80;;;6.63;;
9848;SDS011;4963;51.444;6.528;2022-08-19T13:37:33;7.50;;;6.80;;
9848;SDS011;4963;51.444;6.528;2022-08-19T13:40:10;8.75;;;7.05;;
9848;SDS011;4963;51.444;6.528;2022-08-19T13:42:41;6.80;;;6.10;;
9848;SDS011;4963;51.444;6.528;2022-08-19T13:45:09;7.80;;;6.30;;
9848;SDS011;4963;51.444;6.528;2022-08-19T13:47:38;7.47;;;5.82;;
9848;SDS011;4963;51.444;6.528;2022-08-19T13:50:09;9.52;;;5.75;;
9848;SDS011;4963;51.444;6.528;2022-08-19T13:52:37;7.60;;;5.90;;
9848;SDS011;4963;51.444;6.528;2022-08-19T13:55:04;7.38;;;5.78;;
9848;SDS011;4963;51.444;6.528;2022-08-19T13:57:32;7.30;;;6.07;;
9848;SDS011;4963;51.444;6.528;2022-08-19T13:59:59;9.90;;;5.38;;
9848;SDS011;4963;51.444;6.528;2022-08-19T14:02:27;5.07;;;4.57;;
9848;SDS011;4963;51.444;6.528;2022-08-19T14:04:55;7.22;;;4.63;;
9848;SDS011;4963;51.444;6.528;2022-08-19T14:07:22;7.85;;;5.50;;
9848;SDS011;4963;51.444;6.528;2022-08-19T14:09:49;6.28;;;5.57;;
9848;SDS011;4963;51.444;6.528;2022-08-19T14:12:18;9.23;;;6.32;;
9848;SDS011;4963;51.444;6.528;2022-08-19T14:14:45;7.20;;;5.32;;
9848;SDS011;4963;51.444;6.528;2022-08-19T14:17:12;6.90;;;5.20;;
9848;SDS011;4963;51.444;6.528;2022-08-19T14:19:40;7.72;;;5.05;;
9848;SDS011;4963;51.444;6.528;2022-08-19T14:22:08;5.93;;;5.32;;
9848;SDS011;4963;51.444;6.528;2022-08-19T14:24:36;7.90;;;6.50;;
9848;SDS011;4963;51.444;6.528;2022-08-19T14:27:04;9.18;;;6.05;;
9848;SDS011;4963;51.444;6.528;2022-08-19T14:29:31;8.18;;;6.50;;
9848;SDS011;4963;51.444;6.528;2022-08-19T14:31:58;7.40;;;5.63;;
9848;SDS011;4963;51.444;6.528;2022-08-19T14:34:25;8.82;;;5.15;;
9848;SDS011;4963;51.444;6.528;2022-08-19T14:36:52;7.40;;;5.90;;
9848;SDS011;4963;51.444;6.528;2022-08-19T14:39:21;6.22;;;5.60;;
9848;SDS011;4963;51.444;6.528;2022-08-19T14:41:48;7.45;;;4.90;;
9848;SDS011;4963;51.444;6.528;2022-08-19T14:44:15;5.82;;;4.47;;
9848;SDS011;4963;51.444;6.528;2022-08-19T14:46:42;7.65;;;5.85;;
9848;SDS011;4963;51.444;6.528;2022-08-19T14:49:09;7.65;;;5.85;;
9848;SDS011;4963;51.444;6.528;2022-08-19T14:51:36;7.95;;;6.18;;
9848;SDS011;4963;51.444;6.528;2022-08-19T14:54:03;8.32;;;6.15;;
9848;SDS011;4963;51.444;6.528;2022-08-19T14:56:32;6.30;;;5.57;;
9848;SDS011;4963;51.444;6.528;2022-08-19T14:58:59;6.90;;;6.20;;
9848;SDS011;4963;51.444;6.528;2022-08-19T15:01:26;6.93;;;6.22;;
9848;SDS011;4963;51.444;6.528;2022-08-19T15:03:53;8.23;;;6.65;;
9848;SDS011;4963;51.444;6.528;2022-08-19T15:06:20;9.80;;;8.80;;
9848;SDS011;4963;51.444;6.528;2022-08-19T15:08:48;10.25;;;9.25;;